createdAt,value
2023-04-04T00:00:51.554Z,3.47
2023-04-04T00:03:19.375Z,2.53
2023-04-04T00:05:46.965Z,2.58
2023-04-04T00:08:14.445Z,2.92
2023-04-04T00:10:42.445Z,3.03
2023-04-04T00:13:10.426Z,2.60
2023-04-04T00:15:37.904Z,3.75
2023-04-04T00:18:06.081Z,3.05
2023-04-04T00:20:33.664Z,3.28
2023-04-04T00:23:01.167Z,3.00
2023-04-04T00:25:28.994Z,2.75
2023-04-04T00:28:00.613Z,1.85
2023-04-04T00:30:29.659Z,3.37
2023-04-04T00:32:58.164Z,2.28
2023-04-04T00:35:25.980Z,2.40
2023-04-04T00:37:53.814Z,2.80
2023-04-04T00:40:21.319Z,3.37
2023-04-04T00:42:48.861Z,2.70
2023-04-04T00:45:16.647Z,2.05
2023-04-04T00:47:44.421Z,3.28
2023-04-04T00:50:12.160Z,2.22
2023-04-04T00:52:40.015Z,2.08
2023-04-04T00:55:07.797Z,2.67
2023-04-04T00:57:35.373Z,2.22
2023-04-04T01:00:07.114Z,4.15
2023-04-04T01:02:35.067Z,1.87
2023-04-04T01:05:03.104Z,1.85
2023-04-04T01:07:32.349Z,3.78
2023-04-04T01:10:00.216Z,2.45
2023-04-04T01:12:28.034Z,3.33
2023-04-04T01:14:55.768Z,2.40
2023-04-04T01:17:23.597Z,2.60
2023-04-04T01:20:27.580Z,1.92
2023-04-04T01:22:55.436Z,2.53
2023-04-04T01:25:33.966Z,2.20
2023-04-04T01:28:02.068Z,2.65
2023-04-04T01:30:35.408Z,3.43
2023-04-04T01:33:22.773Z,3.97
2023-04-04T01:36:31.362Z,3.03
2023-04-04T01:39:02.667Z,1.67
2023-04-04T01:41:32.927Z,3.80
2023-04-04T01:44:01.474Z,1.92
2023-04-04T01:46:29.527Z,2.35
2023-04-04T01:48:57.520Z,2.22
2023-04-04T01:51:25.801Z,1.62
2023-04-04T01:53:53.687Z,1.98
2023-04-04T01:56:21.553Z,8.82
2023-04-04T01:58:49.107Z,2.37
2023-04-04T02:01:17.299Z,2.50
2023-04-04T02:03:45.091Z,2.95
2023-04-04T02:06:13.493Z,3.47
2023-04-04T02:08:41.410Z,1.58
2023-04-04T02:11:09.869Z,2.20
2023-04-04T02:13:41.244Z,1.70
2023-04-04T02:16:09.909Z,2.15
2023-04-04T02:18:37.375Z,2.47
2023-04-04T02:21:04.892Z,1.65
2023-04-04T02:23:32.648Z,2.20
2023-04-04T02:26:00.139Z,1.77
2023-04-04T02:28:31.443Z,2.37
2023-04-04T02:31:02.793Z,3.55
2023-04-04T02:33:30.456Z,2.42
2023-04-04T02:35:59.307Z,2.22
2023-04-04T02:38:27.466Z,2.90
2023-04-04T02:40:55.956Z,3.22
2023-04-04T02:43:23.449Z,2.70
2023-04-04T02:45:51.792Z,5.12
2023-04-04T02:48:20.473Z,3.22
2023-04-04T02:50:48.232Z,3.08
2023-04-04T02:53:16.792Z,7.37
2023-04-04T02:55:44.300Z,1.73
2023-04-04T02:58:12.003Z,1.77
2023-04-04T03:00:40.108Z,3.22
2023-04-04T03:03:08.036Z,3.58
2023-04-04T03:05:36.225Z,1.73
2023-04-04T03:08:04.801Z,2.20
2023-04-04T03:10:32.474Z,4.05
2023-04-04T03:12:59.962Z,1.80
2023-04-04T03:15:27.907Z,1.45
2023-04-04T03:17:55.965Z,2.60
2023-04-04T03:20:24.262Z,2.35
2023-04-04T03:22:52.184Z,1.62
2023-04-04T03:25:19.724Z,3.60
2023-04-04T03:27:47.275Z,2.17
2023-04-04T03:30:16.100Z,3.95
2023-04-04T03:32:43.704Z,2.90
2023-04-04T03:35:13.050Z,2.12
2023-04-04T03:37:42.814Z,2.10
2023-04-04T03:40:10.648Z,3.22
2023-04-04T03:42:39.164Z,3.42
2023-04-04T03:45:07.750Z,4.12
2023-04-04T03:47:36.185Z,2.17
2023-04-04T03:50:03.814Z,11.88
2023-04-04T03:52:31.924Z,2.17
2023-04-04T03:54:59.393Z,1.35
2023-04-04T03:57:27.192Z,5.82
2023-04-04T03:59:54.933Z,1.98
2023-04-04T04:02:22.623Z,1.75
2023-04-04T04:04:50.579Z,2.58
2023-04-04T04:07:18.080Z,2.45
2023-04-04T04:09:45.742Z,2.65
2023-04-04T04:12:13.433Z,2.00
2023-04-04T04:14:42.528Z,1.75
2023-04-04T04:17:10.002Z,1.80
2023-04-04T04:19:37.771Z,2.42
2023-04-04T04:22:05.367Z,2.20
2023-04-04T04:24:33.482Z,1.83
2023-04-04T04:29:31.377Z,2.80
2023-04-04T04:31:59.073Z,1.62
2023-04-04T04:34:27.795Z,1.73
2023-04-04T04:36:58.029Z,3.25
2023-04-04T04:39:25.503Z,3.75
2023-04-04T04:41:54.604Z,2.40
2023-04-04T04:44:23.911Z,2.33
2023-04-04T04:46:51.861Z,2.85
2023-04-04T04:49:19.784Z,3.70
2023-04-04T04:51:48.097Z,1.37
2023-04-04T04:54:16.130Z,2.37
2023-04-04T04:56:44.701Z,1.83
2023-04-04T04:59:12.866Z,4.50
2023-04-04T05:01:41.382Z,4.07
2023-04-04T05:04:10.283Z,6.75
2023-04-04T05:06:38.326Z,3.42
2023-04-04T05:09:07.112Z,1.62
2023-04-04T05:11:35.521Z,3.10
2023-04-04T05:14:03.430Z,2.58
2023-04-04T05:16:32.532Z,1.98
2023-04-04T05:19:00.310Z,3.60
2023-04-04T05:21:28.078Z,2.40
2023-04-04T05:23:55.771Z,2.25
2023-04-04T05:26:25.014Z,1.37
2023-04-04T05:28:53.280Z,1.23
2023-04-04T05:31:21.482Z,1.30
2023-04-04T05:33:50.503Z,2.37
2023-04-04T05:36:19.544Z,2.12
2023-04-04T05:38:47.869Z,0.98
2023-04-04T05:41:16.485Z,2.72
2023-04-04T05:43:44.145Z,1.65
2023-04-04T05:46:12.295Z,2.25
2023-04-04T05:48:40.446Z,1.45
2023-04-04T05:51:07.955Z,2.28
2023-04-04T05:53:35.761Z,3.08
2023-04-04T05:56:03.828Z,3.08
2023-04-04T05:58:31.429Z,3.33
2023-04-04T06:00:59.081Z,1.30
2023-04-04T06:03:28.815Z,1.75
2023-04-04T06:05:56.862Z,2.35
2023-04-04T06:08:24.394Z,5.32
2023-04-04T06:10:52.073Z,2.15
2023-04-04T06:13:19.516Z,4.65
2023-04-04T06:15:48.480Z,1.90
2023-04-04T06:18:17.484Z,3.08
2023-04-04T06:20:45.044Z,2.12
2023-04-04T06:23:12.766Z,4.47
2023-04-04T06:25:41.761Z,1.98
2023-04-04T06:28:09.687Z,4.22
2023-04-04T06:30:38.268Z,3.40
2023-04-04T06:33:06.564Z,3.50
2023-04-04T06:35:35.136Z,3.10
2023-04-04T06:38:06.954Z,3.97
2023-04-04T06:40:35.153Z,2.72
2023-04-04T06:43:03.347Z,1.65
2023-04-04T06:45:33.656Z,1.92
2023-04-04T06:50:30.944Z,5.85
2023-04-04T06:52:58.610Z,3.90
2023-04-04T06:55:27.208Z,3.55
2023-04-04T06:57:55.013Z,6.45
2023-04-04T07:00:22.498Z,7.30
2023-04-04T07:02:50.620Z,3.65
2023-04-04T07:05:18.317Z,4.22
2023-04-04T07:07:47.034Z,5.68
2023-04-04T07:10:14.821Z,2.65
2023-04-04T07:12:42.406Z,2.95
2023-04-04T07:15:10.624Z,3.72
2023-04-04T07:17:39.124Z,3.53
2023-04-04T07:20:07.620Z,3.72
2023-04-04T07:22:39.447Z,2.83
2023-04-04T07:25:07.972Z,4.50
2023-04-04T07:27:36.083Z,3.83
2023-04-04T07:30:04.602Z,4.80
2023-04-04T07:32:32.498Z,3.03
2023-04-04T07:34:59.958Z,4.87
2023-04-04T07:37:27.381Z,4.47
2023-04-04T07:39:55.210Z,4.62
2023-04-04T07:42:25.470Z,3.67
2023-04-04T07:44:52.899Z,4.32
2023-04-04T07:47:21.448Z,5.65
2023-04-04T07:49:48.946Z,6.22
2023-04-04T07:52:16.536Z,3.87
2023-04-04T07:54:44.676Z,3.22
2023-04-04T07:57:12.131Z,4.37
2023-04-04T07:59:39.676Z,4.45
2023-04-04T08:02:07.366Z,5.12
2023-04-04T08:04:35.484Z,5.00
2023-04-04T08:07:02.932Z,4.55
2023-04-04T08:09:34.405Z,7.72
2023-04-04T08:12:03.316Z,5.72
2023-04-04T08:14:31.411Z,6.72
2023-04-04T08:17:09.250Z,4.18
2023-04-04T08:19:36.952Z,7.45
2023-04-04T08:22:05.464Z,5.05
2023-04-04T08:24:32.910Z,9.50
2023-04-04T08:27:05.322Z,5.40
2023-04-04T08:29:34.457Z,8.75
2023-04-04T08:32:02.430Z,5.00
2023-04-04T08:34:29.900Z,5.68
2023-04-04T08:37:00.293Z,4.93
2023-04-04T08:39:28.020Z,5.15
2023-04-04T08:42:05.670Z,4.72
2023-04-04T08:44:34.644Z,5.72
2023-04-04T08:47:05.277Z,7.70
2023-04-04T08:49:36.387Z,5.30
2023-04-04T08:52:03.978Z,7.85
2023-04-04T08:54:31.461Z,3.83
2023-04-04T08:56:59.182Z,6.53
2023-04-04T08:59:27.010Z,5.20
2023-04-04T09:02:09.796Z,7.37
2023-04-04T09:04:37.804Z,5.53
2023-04-04T09:07:05.274Z,4.90
2023-04-04T09:09:32.965Z,4.25
2023-04-04T09:12:01.530Z,9.75
2023-04-04T09:14:29.910Z,9.82
2023-04-04T09:16:58.045Z,7.15
2023-04-04T09:19:26.514Z,6.18
2023-04-04T09:21:54.239Z,5.37
2023-04-04T09:24:21.682Z,10.63
2023-04-04T09:26:53.078Z,7.78
2023-04-04T09:29:23.513Z,13.95
2023-04-04T09:31:51.435Z,9.90
2023-04-04T09:34:19.467Z,5.37
2023-04-04T09:36:49.474Z,5.12
2023-04-04T09:39:21.062Z,6.00
2023-04-04T09:44:54.868Z,6.00
2023-04-04T09:50:03.950Z,5.55
2023-04-04T09:52:37.572Z,4.15
2023-04-04T09:55:09.681Z,8.82
2023-04-04T09:57:38.022Z,6.40
2023-04-04T10:00:09.655Z,8.85
2023-04-04T10:02:38.034Z,4.25
2023-04-04T10:05:07.086Z,7.72
2023-04-04T10:07:34.730Z,7.57
2023-04-04T10:10:04.057Z,6.22
2023-04-04T10:12:33.019Z,4.93
2023-04-04T10:15:00.782Z,3.17
2023-04-04T10:17:38.573Z,3.42
2023-04-04T10:20:07.454Z,7.53
2023-04-04T10:22:36.033Z,3.00
2023-04-04T10:25:07.266Z,4.60
2023-04-04T10:27:35.610Z,3.60
2023-04-04T10:30:03.235Z,4.75
2023-04-04T10:32:43.570Z,6.72
2023-04-04T10:35:11.810Z,4.97
2023-04-04T10:37:51.494Z,4.87
2023-04-04T10:40:22.165Z,3.83
2023-04-04T10:42:49.611Z,4.75
2023-04-04T10:45:20.582Z,3.62
2023-04-04T10:47:49.649Z,3.28
2023-04-04T10:50:17.160Z,5.50
2023-04-04T10:52:45.849Z,6.00
2023-04-04T10:55:14.991Z,3.55
2023-04-04T10:57:44.741Z,4.50
2023-04-04T11:00:17.937Z,5.57
2023-04-04T11:02:51.325Z,4.85
2023-04-04T11:05:30.985Z,3.75
2023-04-04T11:08:07.454Z,5.57
2023-04-04T11:10:36.140Z,3.33
2023-04-04T11:13:12.617Z,3.33
2023-04-04T11:15:56.876Z,5.82
2023-04-04T11:18:42.373Z,4.40
2023-04-04T11:21:11.539Z,4.57
2023-04-04T11:23:59.479Z,4.37
2023-04-04T11:26:30.223Z,4.50
2023-04-04T11:29:04.555Z,4.65
2023-04-04T11:31:40.139Z,4.70
2023-04-04T11:34:09.188Z,4.75
2023-04-04T11:36:40.262Z,4.20
2023-04-04T11:39:30.872Z,3.83
2023-04-04T11:42:11.601Z,4.32
2023-04-04T11:44:48.894Z,5.87
2023-04-04T11:47:19.108Z,5.32
2023-04-04T11:49:49.546Z,4.05
2023-04-04T11:52:21.184Z,3.42
2023-04-04T11:54:49.151Z,4.37
2023-04-04T11:57:20.339Z,5.57
2023-04-04T11:59:49.067Z,3.00
2023-04-04T12:02:20.006Z,5.90
2023-04-04T12:04:48.224Z,6.40
2023-04-04T12:07:15.987Z,5.82
2023-04-04T12:09:43.756Z,8.82
2023-04-04T12:12:16.460Z,5.35
2023-04-04T12:14:44.140Z,4.78
2023-04-04T12:17:11.917Z,3.65
2023-04-04T12:19:40.016Z,3.92
2023-04-04T12:22:10.830Z,4.22
2023-04-04T12:24:38.611Z,4.07
2023-04-04T12:27:06.359Z,2.95
2023-04-04T12:29:37.627Z,2.17
2023-04-04T12:32:05.916Z,4.75
2023-04-04T12:34:34.042Z,5.75
2023-04-04T12:37:01.942Z,5.70
2023-04-04T12:39:29.787Z,8.82
2023-04-04T12:42:03.546Z,7.05
2023-04-04T12:44:39.380Z,9.02
2023-04-04T12:47:07.931Z,5.68
2023-04-04T12:49:38.392Z,9.32
2023-04-04T12:54:38.810Z,8.50
2023-04-04T12:57:07.422Z,6.12
2023-04-04T12:59:36.225Z,11.98
2023-04-04T13:02:12.552Z,9.00
2023-04-04T13:04:40.629Z,8.23
2023-04-04T13:07:32.912Z,10.95
2023-04-04T13:10:03.919Z,7.90
2023-04-04T13:12:52.935Z,6.25
2023-04-04T13:15:20.744Z,9.20
2023-04-04T13:17:49.311Z,8.73
2023-04-04T13:20:17.955Z,9.15
2023-04-04T13:22:45.666Z,8.57
2023-04-04T13:25:13.180Z,10.00
2023-04-04T13:27:41.428Z,9.10
2023-04-04T13:30:10.342Z,12.68
2023-04-04T13:32:38.970Z,13.40
2023-04-04T13:35:06.788Z,13.00
2023-04-04T13:37:34.589Z,12.27
2023-04-04T13:40:02.036Z,10.93
2023-04-04T13:42:31.633Z,15.77
2023-04-04T13:44:59.638Z,14.77
2023-04-04T13:47:27.655Z,15.38
2023-04-04T13:49:55.560Z,14.00
2023-04-04T13:52:23.790Z,14.57
2023-04-04T13:54:51.273Z,14.75
2023-04-04T13:57:18.766Z,19.60
2023-04-04T13:59:49.854Z,19.92
2023-04-04T14:02:31.028Z,16.92
2023-04-04T14:04:58.788Z,16.70
2023-04-04T14:07:26.302Z,18.15
2023-04-04T14:09:53.754Z,16.08
2023-04-04T14:12:21.536Z,14.82
2023-04-04T14:14:48.996Z,22.20
2023-04-04T14:17:16.388Z,13.27
2023-04-04T14:19:44.176Z,15.88
2023-04-04T14:22:11.618Z,13.70
2023-04-04T14:24:39.090Z,12.73
2023-04-04T14:27:07.052Z,15.00
2023-04-04T14:29:34.732Z,15.60
2023-04-04T14:32:02.221Z,15.02
2023-04-04T14:34:30.158Z,13.50
2023-04-04T14:36:57.620Z,14.87
2023-04-04T14:39:25.202Z,12.65
2023-04-04T14:41:52.938Z,11.23
2023-04-04T14:44:21.994Z,13.15
2023-04-04T14:46:52.416Z,14.93
2023-04-04T14:49:20.271Z,12.75
2023-04-04T14:51:47.811Z,11.90
2023-04-04T14:54:15.468Z,11.35
2023-04-04T14:56:44.802Z,11.82
2023-04-04T14:59:12.288Z,11.47
2023-04-04T15:01:40.171Z,10.77
2023-04-04T15:04:08.014Z,11.57
2023-04-04T15:06:38.052Z,11.82
2023-04-04T15:11:35.396Z,11.63
2023-04-04T15:14:03.077Z,12.00
2023-04-04T15:16:33.109Z,13.38
2023-04-04T15:19:01.170Z,11.52
2023-04-04T15:21:28.721Z,13.82
2023-04-04T15:23:56.175Z,12.20
2023-04-04T15:26:24.250Z,12.55
2023-04-04T15:28:51.870Z,12.93
2023-04-04T15:31:20.927Z,10.32
2023-04-04T15:33:48.831Z,10.57
2023-04-04T15:36:16.258Z,13.73
2023-04-04T15:38:43.682Z,12.00
2023-04-04T15:41:11.536Z,12.35
2023-04-04T15:43:38.979Z,16.02
2023-04-04T15:46:06.566Z,12.63
2023-04-04T15:48:34.584Z,12.07
2023-04-04T15:51:03.171Z,14.52
2023-04-04T15:56:28.014Z,11.52
2023-04-04T16:11:07.861Z,16.30
2023-04-04T16:13:35.641Z,13.15
2023-04-04T16:16:03.131Z,13.62
2023-04-04T16:18:30.731Z,18.35
2023-04-04T16:20:58.507Z,15.05
2023-04-04T16:23:26.074Z,14.63
2023-04-04T16:25:55.015Z,12.80
2023-04-04T16:28:22.793Z,13.23
2023-04-04T16:30:51.098Z,13.05
2023-04-04T16:33:18.867Z,10.05
2023-04-04T16:35:46.853Z,13.95
2023-04-04T16:38:14.329Z,13.30
2023-04-04T16:40:43.118Z,12.05
2023-04-04T16:43:10.870Z,11.17
2023-04-04T16:45:38.366Z,10.95
2023-04-04T16:48:05.937Z,14.13
2023-04-04T16:50:34.266Z,10.02
2023-04-04T16:53:02.044Z,10.20
2023-04-04T16:55:29.623Z,13.07
2023-04-04T16:57:57.412Z,16.00
2023-04-04T17:00:24.954Z,9.80
2023-04-04T17:02:52.584Z,11.68
2023-04-04T17:05:20.387Z,9.35
2023-04-04T17:07:47.922Z,9.82
2023-04-04T17:10:15.501Z,11.07
2023-04-04T17:12:43.412Z,11.80
2023-04-04T17:15:11.229Z,12.02
2023-04-04T17:17:38.760Z,11.12
2023-04-04T17:20:07.404Z,9.68
2023-04-04T17:22:35.205Z,9.90
2023-04-04T17:25:03.595Z,12.18
2023-04-04T17:27:31.861Z,8.82
2023-04-04T17:29:59.779Z,8.68
2023-04-04T17:32:27.653Z,12.70
2023-04-04T17:34:56.449Z,8.93
2023-04-04T17:37:24.365Z,9.38
2023-04-04T17:39:52.262Z,8.15
2023-04-04T17:42:21.010Z,10.35
2023-04-04T17:44:49.397Z,8.98
2023-04-04T17:47:17.023Z,10.50
2023-04-04T17:49:46.833Z,9.43
2023-04-04T17:52:19.495Z,9.63
2023-04-04T17:54:52.798Z,11.77
2023-04-04T17:57:20.640Z,7.47
2023-04-04T17:59:48.535Z,7.95
2023-04-04T18:02:29.722Z,9.07
2023-04-04T18:04:58.503Z,8.35
2023-04-04T18:07:26.510Z,7.72
2023-04-04T18:09:54.057Z,12.45
2023-04-04T18:12:22.679Z,9.05
2023-04-04T18:17:48.750Z,8.82
2023-04-04T18:20:27.767Z,11.75
2023-04-04T18:23:03.251Z,9.80
2023-04-04T18:25:34.060Z,8.57
2023-04-04T18:28:02.205Z,9.68
2023-04-04T18:30:29.860Z,8.70
2023-04-04T18:32:57.718Z,7.68
2023-04-04T18:35:25.633Z,8.23
2023-04-04T18:37:53.586Z,11.27
2023-04-04T18:43:07.301Z,8.23
2023-04-04T18:45:40.492Z,12.90
2023-04-04T18:48:09.038Z,10.10
2023-04-04T18:50:37.211Z,10.52
2023-04-04T18:53:05.597Z,7.75
2023-04-04T18:55:33.558Z,9.10
2023-04-04T18:58:02.387Z,9.15
2023-04-04T19:00:30.375Z,11.18
2023-04-04T19:02:58.528Z,10.50
2023-04-04T19:05:28.464Z,11.52
2023-04-04T19:07:56.303Z,8.02
2023-04-04T19:10:23.868Z,11.43
2023-04-04T19:12:51.726Z,9.35
2023-04-04T19:15:21.022Z,16.35
2023-04-04T19:17:48.946Z,12.90
2023-04-04T19:20:17.088Z,6.80
2023-04-04T19:22:44.970Z,8.55
2023-04-04T19:25:13.022Z,10.68
2023-04-04T19:27:41.653Z,10.65
2023-04-04T19:30:44.855Z,10.68
2023-04-04T19:33:17.247Z,13.32
2023-04-04T19:36:00.535Z,8.80
2023-04-04T19:38:33.836Z,11.82
2023-04-04T19:41:27.750Z,7.00
2023-04-04T19:43:56.727Z,9.77
2023-04-04T19:46:26.449Z,11.52
2023-04-04T19:48:56.273Z,11.18
2023-04-04T19:51:24.018Z,9.02
2023-04-04T19:53:53.485Z,8.02
2023-04-04T19:56:22.249Z,7.30
2023-04-04T19:58:54.633Z,10.00
2023-04-04T20:01:23.741Z,7.00
2023-04-04T20:03:52.057Z,7.47
2023-04-04T20:06:32.826Z,8.40
2023-04-04T20:09:01.982Z,9.13
2023-04-04T20:11:33.793Z,7.95
2023-04-04T20:14:05.721Z,7.47
2023-04-04T20:16:33.870Z,8.43
2023-04-04T20:19:03.865Z,6.00
2023-04-04T20:21:36.512Z,11.55
2023-04-04T20:24:08.667Z,8.98
2023-04-04T20:26:36.412Z,10.75
2023-04-04T20:29:10.635Z,10.02
2023-04-04T20:31:42.237Z,10.57
2023-04-04T20:34:28.411Z,8.98
2023-04-04T20:36:55.926Z,10.63
2023-04-04T20:39:53.323Z,7.15
2023-04-04T20:42:29.898Z,10.07
2023-04-04T20:45:03.796Z,10.55
2023-04-04T20:47:47.573Z,9.50
2023-04-04T20:50:18.970Z,8.73
2023-04-04T20:52:48.780Z,9.07
2023-04-04T20:55:20.406Z,11.40
2023-04-04T20:57:47.949Z,9.50
2023-04-04T21:00:25.526Z,6.75
2023-04-04T21:02:53.184Z,6.45
2023-04-04T21:05:34.200Z,10.40
2023-04-04T21:08:02.411Z,7.35
2023-04-04T21:10:30.042Z,7.45
2023-04-04T21:12:58.551Z,8.13
2023-04-04T21:15:28.677Z,6.30
2023-04-04T21:17:58.879Z,8.48
2023-04-04T21:20:46.458Z,8.02
2023-04-04T21:23:26.210Z,8.27
2023-04-04T21:25:58.048Z,6.03
2023-04-04T21:28:29.717Z,7.75
2023-04-04T21:30:57.287Z,6.00
2023-04-04T21:33:24.755Z,7.03
2023-04-04T21:35:53.473Z,7.40
2023-04-04T21:38:30.888Z,7.43
2023-04-04T21:40:59.786Z,6.10
2023-04-04T21:43:27.858Z,9.30
2023-04-04T21:45:58.200Z,8.50
2023-04-04T21:48:25.998Z,7.15
2023-04-04T21:50:53.504Z,6.97
2023-04-04T21:53:22.323Z,7.50
2023-04-04T21:55:51.079Z,5.80
2023-04-04T21:58:18.934Z,6.57
2023-04-04T22:00:46.471Z,7.07
2023-04-04T22:03:15.477Z,6.97
2023-04-04T22:05:42.952Z,6.00
2023-04-04T22:08:10.478Z,9.32
2023-04-04T22:10:53.653Z,6.40
2023-04-04T22:13:22.643Z,5.80
2023-04-04T22:15:50.364Z,8.97
2023-04-04T22:18:17.925Z,5.40
2023-04-04T22:20:47.222Z,5.22
2023-04-04T22:23:15.541Z,5.80
2023-04-04T22:25:42.974Z,5.00
2023-04-04T22:28:10.365Z,5.68
2023-04-04T22:30:42.521Z,5.00
2023-04-04T22:33:10.631Z,6.32
2023-04-04T22:35:39.476Z,7.15
2023-04-04T22:38:06.970Z,7.72
2023-04-04T22:40:34.468Z,7.68
2023-04-04T22:43:03.160Z,6.07
2023-04-04T22:45:32.062Z,5.05
2023-04-04T22:48:02.281Z,6.10
2023-04-04T22:50:30.101Z,5.62
2023-04-04T22:52:58.763Z,5.68
2023-04-04T22:55:26.895Z,6.00
2023-04-04T22:57:54.640Z,5.50
2023-04-04T23:00:22.727Z,7.00
2023-04-04T23:02:51.421Z,6.28
2023-04-04T23:05:19.272Z,4.70
2023-04-04T23:07:46.944Z,5.75
2023-04-04T23:10:15.536Z,6.75
2023-04-04T23:12:43.250Z,6.07
2023-04-04T23:15:13.315Z,7.72
2023-04-04T23:20:09.394Z,6.10
2023-04-04T23:22:37.599Z,5.87
2023-04-04T23:25:06.566Z,6.45
2023-04-04T23:27:34.493Z,7.00
2023-04-04T23:30:05.076Z,5.72
2023-04-04T23:32:32.675Z,6.03
2023-04-04T23:35:02.643Z,6.47
2023-04-04T23:37:30.066Z,8.07
2023-04-04T23:39:57.493Z,4.03
2023-04-04T23:42:25.298Z,6.87
2023-04-04T23:44:52.768Z,5.95
2023-04-04T23:47:20.931Z,5.93
2023-04-04T23:49:48.683Z,7.40
2023-04-04T23:52:16.234Z,4.80
2023-04-04T23:54:43.658Z,4.95
2023-04-04T23:57:11.413Z,6.32
2023-04-04T23:59:38.870Z,7.20
